sensor_id;sensor_type;location;lat;lon;timestamp;pressure;altitude;pressure_sealevel;temperature;humidity
11750;BME280;5932;42.656;23.236;2022-07-29T00:00:04;93853.00;;;18.90;93.89
11750;BME280;5932;42.656;23.236;2022-07-29T00:02:31;93863.06;;;18.84;94.90
11750;BME280;5932;42.656;23.236;2022-07-29T00:04:58;93862.31;;;18.74;95.08
11750;BME280;5932;42.656;23.236;2022-07-29T00:07:25;93868.09;;;18.67;94.19
11750;BME280;5932;42.656;23.236;2022-07-29T00:09:52;93864.75;;;18.54;93.77
11750;BME280;5932;42.656;23.236;2022-07-29T00:12:20;93868.13;;;18.49;94.57
11750;BME280;5932;42.656;23.236;2022-07-29T00:14:48;93859.44;;;18.50;95.28
11750;BME280;5932;42.656;23.236;2022-07-29T00:17:14;93859.41;;;18.59;93.57
11750;BME280;5932;42.656;23.236;2022-07-29T00:19:41;93848.44;;;18.68;92.51
11750;BME280;5932;42.656;23.236;2022-07-29T00:22:08;93842.66;;;18.67;93.88
11750;BME280;5932;42.656;23.236;2022-07-29T00:24:35;93842.97;;;18.59;92.58
11750;BME280;5932;42.656;23.236;2022-07-29T00:27:02;93833.50;;;18.51;94.10
11750;BME280;5932;42.656;23.236;2022-07-29T00:29:30;93848.75;;;18.61;94.06
11750;BME280;5932;42.656;23.236;2022-07-29T00:31:56;93847.84;;;18.64;93.31
11750;BME280;5932;42.656;23.236;2022-07-29T00:34:23;93847.84;;;18.64;93.38
11750;BME280;5932;42.656;23.236;2022-07-29T00:37:08;93859.56;;;18.74;93.42
11750;BME280;5932;42.656;23.236;2022-07-29T00:39:35;93848.88;;;18.67;93.13
11750;BME280;5932;42.656;23.236;2022-07-29T00:42:03;93859.28;;;18.72;92.33
11750;BME280;5932;42.656;23.236;2022-07-29T00:44:36;93864.91;;;18.78;92.73
11750;BME280;5932;42.656;23.236;2022-07-29T00:47:03;93855.16;;;18.67;93.06
11750;BME280;5932;42.656;23.236;2022-07-29T00:49:30;93853.31;;;18.74;93.41
11750;BME280;5932;42.656;23.236;2022-07-29T00:51:57;93839.91;;;18.67;91.89
11750;BME280;5932;42.656;23.236;2022-07-29T00:54:24;93859.09;;;18.85;92.91
11750;BME280;5932;42.656;23.236;2022-07-29T00:56:52;93856.03;;;18.83;91.03
11750;BME280;5932;42.656;23.236;2022-07-29T00:59:19;93853.75;;;18.81;92.40
11750;BME280;5932;42.656;23.236;2022-07-29T01:01:47;93854.66;;;18.87;92.21
11750;BME280;5932;42.656;23.236;2022-07-29T01:04:14;93851.94;;;18.87;92.26
11750;BME280;5932;42.656;23.236;2022-07-29T01:06:42;93843.56;;;18.82;92.32
11750;BME280;5932;42.656;23.236;2022-07-29T01:09:10;93835.78;;;18.80;92.94
11750;BME280;5932;42.656;23.236;2022-07-29T01:11:38;93831.66;;;18.85;92.88
11750;BME280;5932;42.656;23.236;2022-07-29T01:14:06;93822.19;;;18.86;92.67
11750;BME280;5932;42.656;23.236;2022-07-29T01:16:37;93827.09;;;18.82;92.27
11750;BME280;5932;42.656;23.236;2022-07-29T01:19:26;93821.28;;;18.80;92.35
11750;BME280;5932;42.656;23.236;2022-07-29T01:22:06;93828.16;;;18.75;92.50
11750;BME280;5932;42.656;23.236;2022-07-29T01:24:51;93832.13;;;18.65;93.18
11750;BME280;5932;42.656;23.236;2022-07-29T01:27:34;93834.41;;;18.57;93.18
11750;BME280;5932;42.656;23.236;2022-07-29T01:30:06;93827.72;;;18.49;92.80
11750;BME280;5932;42.656;23.236;2022-07-29T01:32:36;93836.09;;;18.46;94.01
11750;BME280;5932;42.656;23.236;2022-07-29T01:35:07;93830.91;;;18.48;94.00
11750;BME280;5932;42.656;23.236;2022-07-29T01:37:44;93811.56;;;18.42;93.87
11750;BME280;5932;42.656;23.236;2022-07-29T01:40:17;93821.00;;;18.32;95.06
11750;BME280;5932;42.656;23.236;2022-07-29T01:42:49;93818.38;;;18.11;96.65
11750;BME280;5932;42.656;23.236;2022-07-29T01:45:23;93817.16;;;17.94;97.92
11750;BME280;5932;42.656;23.236;2022-07-29T01:47:56;93821.72;;;17.97;97.57
11750;BME280;5932;42.656;23.236;2022-07-29T01:50:31;93815.34;;;18.09;97.50
11750;BME280;5932;42.656;23.236;2022-07-29T01:53:01;93820.22;;;18.14;97.29
11750;BME280;5932;42.656;23.236;2022-07-29T01:55:29;93822.38;;;18.10;97.44
11750;BME280;5932;42.656;23.236;2022-07-29T01:57:58;93814.72;;;17.96;98.04
11750;BME280;5932;42.656;23.236;2022-07-29T02:00:29;93817.63;;;18.01;97.89
11750;BME280;5932;42.656;23.236;2022-07-29T02:02:58;93817.16;;;18.03;97.75
11750;BME280;5932;42.656;23.236;2022-07-29T02:05:27;93810.94;;;18.11;97.86
11750;BME280;5932;42.656;23.236;2022-07-29T02:07:55;93802.41;;;18.18;97.38
11750;BME280;5932;42.656;23.236;2022-07-29T02:10:27;93801.94;;;18.20;97.41
11750;BME280;5932;42.656;23.236;2022-07-29T02:12:57;93799.97;;;18.20;97.32
11750;BME280;5932;42.656;23.236;2022-07-29T02:15:26;93805.75;;;18.13;97.51
11750;BME280;5932;42.656;23.236;2022-07-29T02:17:58;93784.53;;;17.87;98.86
11750;BME280;5932;42.656;23.236;2022-07-29T02:20:26;93799.66;;;18.00;99.04
11750;BME280;5932;42.656;23.236;2022-07-29T02:22:54;93789.91;;;17.99;98.64
11750;BME280;5932;42.656;23.236;2022-07-29T02:25:22;93795.56;;;18.14;98.59
11750;BME280;5932;42.656;23.236;2022-07-29T02:27:51;93787.03;;;18.12;98.94
11750;BME280;5932;42.656;23.236;2022-07-29T02:30:19;93795.41;;;18.17;99.58
11750;BME280;5932;42.656;23.236;2022-07-29T02:32:49;93790.81;;;18.14;99.07
11750;BME280;5932;42.656;23.236;2022-07-29T02:35:19;93782.28;;;18.12;98.92
11750;BME280;5932;42.656;23.236;2022-07-29T02:37:48;93778.03;;;18.20;98.51
11750;BME280;5932;42.656;23.236;2022-07-29T02:40:38;93777.25;;;18.11;98.85
11750;BME280;5932;42.656;23.236;2022-07-29T02:43:07;93771.63;;;18.05;99.10
11750;BME280;5932;42.656;23.236;2022-07-29T02:45:36;93769.81;;;18.11;99.27
11750;BME280;5932;42.656;23.236;2022-07-29T02:48:06;93766.75;;;18.18;99.03
11750;BME280;5932;42.656;23.236;2022-07-29T02:50:41;93764.16;;;18.15;100.00
11750;BME280;5932;42.656;23.236;2022-07-29T02:53:14;93770.41;;;18.06;100.00
11750;BME280;5932;42.656;23.236;2022-07-29T02:55:46;93771.63;;;18.05;100.00
11750;BME280;5932;42.656;23.236;2022-07-29T02:58:20;93774.38;;;18.05;100.00
11750;BME280;5932;42.656;23.236;2022-07-29T03:00:52;93774.06;;;18.12;99.95
11750;BME280;5932;42.656;23.236;2022-07-29T03:03:20;93772.69;;;18.17;99.69
11750;BME280;5932;42.656;23.236;2022-07-29T03:05:52;93777.56;;;18.22;99.87
11750;BME280;5932;42.656;23.236;2022-07-29T03:08:20;93787.63;;;18.25;98.69
11750;BME280;5932;42.656;23.236;2022-07-29T03:10:48;93784.88;;;18.25;98.80
11750;BME280;5932;42.656;23.236;2022-07-29T03:13:16;93785.34;;;18.14;99.53
11750;BME280;5932;42.656;23.236;2022-07-29T03:15:45;93776.50;;;18.01;99.94
11750;BME280;5932;42.656;23.236;2022-07-29T03:18:12;93785.19;;;18.09;100.00
11750;BME280;5932;42.656;23.236;2022-07-29T03:20:40;93784.09;;;18.06;100.00
11750;BME280;5932;42.656;23.236;2022-07-29T03:23:09;93794.16;;;18.18;99.39
11750;BME280;5932;42.656;23.236;2022-07-29T03:25:36;93793.56;;;18.14;99.27
11750;BME280;5932;42.656;23.236;2022-07-29T03:28:03;93803.59;;;18.08;99.43
11750;BME280;5932;42.656;23.236;2022-07-29T03:30:30;93792.34;;;17.97;99.90
11750;BME280;5932;42.656;23.236;2022-07-29T03:32:56;93803.91;;;18.10;98.97
11750;BME280;5932;42.656;23.236;2022-07-29T03:35:23;93810.00;;;18.05;100.00
11750;BME280;5932;42.656;23.236;2022-07-29T03:37:50;93787.13;;;17.81;100.00
11750;BME280;5932;42.656;23.236;2022-07-29T03:40:22;93793.06;;;17.79;100.00
11750;BME280;5932;42.656;23.236;2022-07-29T03:42:54;93795.81;;;17.79;100.00
11750;BME280;5932;42.656;23.236;2022-07-29T03:45:22;93793.53;;;17.78;100.00
11750;BME280;5932;42.656;23.236;2022-07-29T03:47:53;93797.31;;;17.71;100.00
11750;BME280;5932;42.656;23.236;2022-07-29T03:50:21;93804.19;;;17.67;100.00
11750;BME280;5932;42.656;23.236;2022-07-29T03:52:48;93793.03;;;17.61;100.00
11750;BME280;5932;42.656;23.236;2022-07-29T03:55:16;93797.31;;;17.62;100.00
11750;BME280;5932;42.656;23.236;2022-07-29T03:57:44;93800.50;;;17.61;100.00
11750;BME280;5932;42.656;23.236;2022-07-29T04:00:12;93806.28;;;17.63;100.00
11750;BME280;5932;42.656;23.236;2022-07-29T04:02:41;93804.19;;;17.67;100.00
11750;BME280;5932;42.656;23.236;2022-07-29T04:05:12;93795.50;;;17.68;100.00
11750;BME280;5932;42.656;23.236;2022-07-29T04:07:39;93798.41;;;17.74;100.00
11750;BME280;5932;42.656;23.236;2022-07-29T04:10:06;93802.94;;;17.77;100.00
11750;BME280;5932;42.656;23.236;2022-07-29T04:12:33;93803.56;;;17.81;100.00
11750;BME280;5932;42.656;23.236;2022-07-29T04:15:02;93793.69;;;17.84;100.00
11750;BME280;5932;42.656;23.236;2022-07-29T04:17:28;93803.59;;;17.90;100.00
11750;BME280;5932;42.656;23.236;2022-07-29T04:19:55;93803.44;;;17.94;100.00
11750;BME280;5932;42.656;23.236;2022-07-29T04:22:22;93800.09;;;17.99;100.00
11750;BME280;5932;42.656;23.236;2022-07-29T04:24:49;93805.59;;;18.08;100.00
11750;BME280;5932;42.656;23.236;2022-07-29T04:27:16;93807.28;;;18.14;100.00
11750;BME280;5932;42.656;23.236;2022-07-29T04:29:42;93815.22;;;18.21;100.00
11750;BME280;5932;42.656;23.236;2022-07-29T04:32:11;93815.06;;;18.25;100.00
11750;BME280;5932;42.656;23.236;2022-07-29T04:34:37;93816.13;;;18.27;100.00
11750;BME280;5932;42.656;23.236;2022-07-29T04:37:04;93816.88;;;18.28;100.00
11750;BME280;5932;42.656;23.236;2022-07-29T04:39:31;93817.47;;;18.32;100.00
11750;BME280;5932;42.656;23.236;2022-07-29T04:41:58;93814.56;;;18.35;100.00
11750;BME280;5932;42.656;23.236;2022-07-29T04:44:25;93814.31;;;18.33;100.00
11750;BME280;5932;42.656;23.236;2022-07-29T04:46:52;93819.59;;;18.28;100.00
11750;BME280;5932;42.656;23.236;2022-07-29T04:49:20;93815.81;;;18.34;100.00
11750;BME280;5932;42.656;23.236;2022-07-29T04:51:47;93815.66;;;18.38;100.00
11750;BME280;5932;42.656;23.236;2022-07-29T04:54:13;93816.91;;;18.46;100.00
11750;BME280;5932;42.656;23.236;2022-07-29T04:56:40;93830.47;;;18.58;100.00
11750;BME280;5932;42.656;23.236;2022-07-29T04:59:07;93824.19;;;18.67;99.26
11750;BME280;5932;42.656;23.236;2022-07-29T05:01:34;93830.28;;;18.71;98.68
11750;BME280;5932;42.656;23.236;2022-07-29T05:04:01;93833.94;;;18.77;98.58
11750;BME280;5932;42.656;23.236;2022-07-29T05:06:29;93834.69;;;18.87;96.98
11750;BME280;5932;42.656;23.236;2022-07-29T05:08:56;93831.94;;;18.96;94.49
11750;BME280;5932;42.656;23.236;2022-07-29T05:11:23;93823.84;;;18.92;94.21
11750;BME280;5932;42.656;23.236;2022-07-29T05:13:49;93834.03;;;19.10;92.34
11750;BME280;5932;42.656;23.236;2022-07-29T05:16:16;93837.19;;;19.17;92.35
11750;BME280;5932;42.656;23.236;2022-07-29T05:18:43;93838.25;;;19.29;92.40
11750;BME280;5932;42.656;23.236;2022-07-29T05:21:10;93839.41;;;19.55;92.23
11750;BME280;5932;42.656;23.236;2022-07-29T05:23:38;93840.75;;;19.60;92.36
11750;BME280;5932;42.656;23.236;2022-07-29T05:26:05;93845.59;;;19.74;92.99
11750;BME280;5932;42.656;23.236;2022-07-29T05:28:33;93843.06;;;19.85;93.42
11750;BME280;5932;42.656;23.236;2022-07-29T05:31:00;93846.41;;;19.89;92.53
11750;BME280;5932;42.656;23.236;2022-07-29T05:33:27;93839.81;;;19.95;93.49
11750;BME280;5932;42.656;23.236;2022-07-29T05:35:53;93841.75;;;20.04;91.84
11750;BME280;5932;42.656;23.236;2022-07-29T05:38:20;93835.44;;;20.12;92.61
11750;BME280;5932;42.656;23.236;2022-07-29T05:40:48;93846.88;;;20.20;92.75
11750;BME280;5932;42.656;23.236;2022-07-29T05:43:15;93852.59;;;20.31;92.69
11750;BME280;5932;42.656;23.236;2022-07-29T05:45:42;93850.25;;;20.38;91.12
11750;BME280;5932;42.656;23.236;2022-07-29T05:48:09;93857.09;;;20.43;90.22
11750;BME280;5932;42.656;23.236;2022-07-29T05:50:35;93853.97;;;20.50;90.52
11750;BME280;5932;42.656;23.236;2022-07-29T05:53:02;93858.75;;;20.64;89.71
11750;BME280;5932;42.656;23.236;2022-07-29T05:55:29;93856.41;;;20.72;89.66
11750;BME280;5932;42.656;23.236;2022-07-29T05:57:57;93858.69;;;20.73;90.48
11750;BME280;5932;42.656;23.236;2022-07-29T06:00:24;93869.91;;;20.84;88.37
11750;BME280;5932;42.656;23.236;2022-07-29T06:02:51;93863.94;;;20.86;88.05
11750;BME280;5932;42.656;23.236;2022-07-29T06:05:18;93868.13;;;20.96;87.17
11750;BME280;5932;42.656;23.236;2022-07-29T06:07:44;93872.84;;;21.04;88.64
11750;BME280;5932;42.656;23.236;2022-07-29T06:10:12;93862.78;;;21.16;86.51
11750;BME280;5932;42.656;23.236;2022-07-29T06:12:39;93867.97;;;21.28;85.15
11750;BME280;5932;42.656;23.236;2022-07-29T06:15:09;93867.31;;;21.34;85.17
11750;BME280;5932;42.656;23.236;2022-07-29T06:17:35;93867.59;;;21.50;86.21
11750;BME280;5932;42.656;23.236;2022-07-29T06:20:03;93869.00;;;21.60;85.87
11750;BME280;5932;42.656;23.236;2022-07-29T06:22:30;93867.19;;;21.72;83.47
11750;BME280;5932;42.656;23.236;2022-07-29T06:24:56;93864.78;;;21.79;81.43
11750;BME280;5932;42.656;23.236;2022-07-29T06:27:23;93871.28;;;21.76;81.65
11750;BME280;5932;42.656;23.236;2022-07-29T06:29:50;93867.66;;;21.85;81.86
11750;BME280;5932;42.656;23.236;2022-07-29T06:32:18;93863.47;;;21.89;81.34
11750;BME280;5932;42.656;23.236;2022-07-29T06:34:45;93867.56;;;21.94;82.02
11750;BME280;5932;42.656;23.236;2022-07-29T06:37:12;93864.38;;;22.01;81.49
11750;BME280;5932;42.656;23.236;2022-07-29T06:39:38;93867.00;;;22.10;82.32
11750;BME280;5932;42.656;23.236;2022-07-29T06:42:06;93862.41;;;22.22;81.18
11750;BME280;5932;42.656;23.236;2022-07-29T06:44:33;93861.03;;;22.32;80.85
11750;BME280;5932;42.656;23.236;2022-07-29T06:47:00;93864.44;;;22.41;80.11
11750;BME280;5932;42.656;23.236;2022-07-29T06:49:28;93872.66;;;22.56;80.10
11750;BME280;5932;42.656;23.236;2022-07-29T06:51:55;93865.50;;;22.64;77.91
11750;BME280;5932;42.656;23.236;2022-07-29T06:54:22;93861.09;;;22.72;77.24
11750;BME280;5932;42.656;23.236;2022-07-29T06:56:48;93871.44;;;22.77;76.99
11750;BME280;5932;42.656;23.236;2022-07-29T06:59:15;93858.44;;;22.83;76.74
11750;BME280;5932;42.656;23.236;2022-07-29T07:01:43;93858.50;;;22.88;77.86
11750;BME280;5932;42.656;23.236;2022-07-29T07:04:10;93860.91;;;23.01;76.08
11750;BME280;5932;42.656;23.236;2022-07-29T07:06:39;93863.38;;;22.99;75.26
11750;BME280;5932;42.656;23.236;2022-07-29T07:09:06;93850.81;;;22.98;75.94
11750;BME280;5932;42.656;23.236;2022-07-29T07:11:33;93861.78;;;23.13;75.61
11750;BME280;5932;42.656;23.236;2022-07-29T07:14:00;93853.34;;;23.27;75.87
11750;BME280;5932;42.656;23.236;2022-07-29T07:16:26;93861.25;;;23.34;75.57
11750;BME280;5932;42.656;23.236;2022-07-29T07:18:53;93868.88;;;23.45;74.31
11750;BME280;5932;42.656;23.236;2022-07-29T07:21:20;93860.72;;;23.61;74.28
11750;BME280;5932;42.656;23.236;2022-07-29T07:23:48;93862.34;;;23.73;73.77
11750;BME280;5932;42.656;23.236;2022-07-29T07:26:15;93871.91;;;23.78;73.76
11750;BME280;5932;42.656;23.236;2022-07-29T07:28:41;93863.44;;;23.87;73.60
11750;BME280;5932;42.656;23.236;2022-07-29T07:31:08;93869.53;;;23.91;72.95
11750;BME280;5932;42.656;23.236;2022-07-29T07:33:35;93867.13;;;24.04;73.64
11750;BME280;5932;42.656;23.236;2022-07-29T07:36:02;93862.38;;;24.10;74.21
11750;BME280;5932;42.656;23.236;2022-07-29T07:38:29;93863.97;;;24.22;73.99
11750;BME280;5932;42.656;23.236;2022-07-29T07:40:58;93868.03;;;24.32;75.81
11750;BME280;5932;42.656;23.236;2022-07-29T07:43:25;93864.56;;;24.43;72.62
11750;BME280;5932;42.656;23.236;2022-07-29T07:45:51;93870.63;;;24.47;72.68
11750;BME280;5932;42.656;23.236;2022-07-29T07:48:18;93871.41;;;24.53;72.58
11750;BME280;5932;42.656;23.236;2022-07-29T07:50:45;93870.13;;;24.48;73.00
11750;BME280;5932;42.656;23.236;2022-07-29T07:53:12;93867.38;;;24.54;72.31
11750;BME280;5932;42.656;23.236;2022-07-29T07:55:39;93876.00;;;24.61;72.75
11750;BME280;5932;42.656;23.236;2022-07-29T07:58:07;93873.00;;;24.70;71.93
11750;BME280;5932;42.656;23.236;2022-07-29T08:00:35;93863.53;;;24.83;70.38
11750;BME280;5932;42.656;23.236;2022-07-29T08:03:03;93862.50;;;24.80;70.42
11750;BME280;5932;42.656;23.236;2022-07-29T08:05:33;93852.22;;;24.92;70.25
11750;BME280;5932;42.656;23.236;2022-07-29T08:08:01;93860.31;;;25.06;70.55
11750;BME280;5932;42.656;23.236;2022-07-29T08:10:28;93866.59;;;25.12;69.42
11750;BME280;5932;42.656;23.236;2022-07-29T08:13:13;93863.88;;;25.29;69.87
11750;BME280;5932;42.656;23.236;2022-07-29T08:15:40;93865.72;;;25.43;67.66
11750;BME280;5932;42.656;23.236;2022-07-29T08:18:08;93863.44;;;25.41;66.33
11750;BME280;5932;42.656;23.236;2022-07-29T08:20:35;93869.00;;;25.47;67.57
11750;BME280;5932;42.656;23.236;2022-07-29T08:23:04;93868.22;;;25.57;67.26
11750;BME280;5932;42.656;23.236;2022-07-29T08:25:32;93866.47;;;25.71;67.21
11750;BME280;5932;42.656;23.236;2022-07-29T08:27:59;93873.03;;;25.85;65.66
11750;BME280;5932;42.656;23.236;2022-07-29T08:30:27;93873.78;;;25.91;64.30
11750;BME280;5932;42.656;23.236;2022-07-29T08:32:54;93873.53;;;26.00;63.81
11750;BME280;5932;42.656;23.236;2022-07-29T08:35:21;93860.91;;;26.10;65.35
11750;BME280;5932;42.656;23.236;2022-07-29T08:37:48;93873.53;;;26.22;64.25
11750;BME280;5932;42.656;23.236;2022-07-29T08:40:14;93863.91;;;26.39;62.20
11750;BME280;5932;42.656;23.236;2022-07-29T08:42:41;93861.34;;;26.47;63.18
11750;BME280;5932;42.656;23.236;2022-07-29T08:45:09;93858.00;;;26.65;63.06
11750;BME280;5932;42.656;23.236;2022-07-29T08:47:38;93863.31;;;26.74;61.19
11750;BME280;5932;42.656;23.236;2022-07-29T08:50:06;93858.00;;;26.82;61.13
11750;BME280;5932;42.656;23.236;2022-07-29T08:52:36;93853.16;;;26.82;61.56
11750;BME280;5932;42.656;23.236;2022-07-29T08:55:05;93852.09;;;26.96;61.72
11750;BME280;5932;42.656;23.236;2022-07-29T08:57:33;93846.22;;;27.05;60.11
11750;BME280;5932;42.656;23.236;2022-07-29T09:00:02;93844.63;;;27.21;60.02
11750;BME280;5932;42.656;23.236;2022-07-29T09:02:33;93850.94;;;27.33;58.85
11750;BME280;5932;42.656;23.236;2022-07-29T09:05:04;93847.34;;;27.32;58.37
11750;BME280;5932;42.656;23.236;2022-07-29T09:07:32;93839.53;;;27.25;57.91
11750;BME280;5932;42.656;23.236;2022-07-29T09:09:59;93839.06;;;27.21;59.86
11750;BME280;5932;42.656;23.236;2022-07-29T09:12:26;93839.75;;;27.38;58.60
11750;BME280;5932;42.656;23.236;2022-07-29T09:14:53;93843.94;;;27.56;56.69
11750;BME280;5932;42.656;23.236;2022-07-29T09:17:39;93845.81;;;27.72;56.79
11750;BME280;5932;42.656;23.236;2022-07-29T09:20:12;93840.69;;;27.81;56.77
11750;BME280;5932;42.656;23.236;2022-07-29T09:22:39;93841.13;;;27.91;56.50
11750;BME280;5932;42.656;23.236;2022-07-29T09:25:06;93838.25;;;28.02;54.23
11750;BME280;5932;42.656;23.236;2022-07-29T09:27:33;93834.94;;;28.03;54.00
11750;BME280;5932;42.656;23.236;2022-07-29T09:30:03;93835.72;;;28.04;54.07
11750;BME280;5932;42.656;23.236;2022-07-29T09:32:31;93835.06;;;28.16;55.08
11750;BME280;5932;42.656;23.236;2022-07-29T09:35:14;93835.09;;;28.41;55.49
11750;BME280;5932;42.656;23.236;2022-07-29T09:37:43;93835.19;;;28.54;53.92
11750;BME280;5932;42.656;23.236;2022-07-29T09:40:15;93833.06;;;28.65;54.01
11750;BME280;5932;42.656;23.236;2022-07-29T09:42:42;93827.94;;;28.69;53.03
11750;BME280;5932;42.656;23.236;2022-07-29T09:45:10;93843.09;;;28.74;52.69
11750;BME280;5932;42.656;23.236;2022-07-29T09:47:42;93841.31;;;28.76;52.04
11750;BME280;5932;42.656;23.236;2022-07-29T09:50:12;93833.94;;;28.79;52.41
11750;BME280;5932;42.656;23.236;2022-07-29T09:52:48;93826.19;;;28.90;52.58
11750;BME280;5932;42.656;23.236;2022-07-29T09:55:15;93828.19;;;29.09;51.85
11750;BME280;5932;42.656;23.236;2022-07-29T09:57:43;93826.03;;;29.20;52.71
11750;BME280;5932;42.656;23.236;2022-07-29T10:00:12;93822.56;;;29.33;50.70
11750;BME280;5932;42.656;23.236;2022-07-29T10:02:41;93816.81;;;29.44;51.04
11750;BME280;5932;42.656;23.236;2022-07-29T10:05:17;93819.69;;;29.57;51.30
11750;BME280;5932;42.656;23.236;2022-07-29T10:07:47;93816.72;;;29.68;51.62
11750;BME280;5932;42.656;23.236;2022-07-29T10:10:23;93818.78;;;29.80;50.55
11750;BME280;5932;42.656;23.236;2022-07-29T10:12:52;93820.34;;;29.95;49.47
11750;BME280;5932;42.656;23.236;2022-07-29T10:15:21;93810.81;;;30.03;48.79
11750;BME280;5932;42.656;23.236;2022-07-29T10:17:49;93806.84;;;30.12;49.18
11750;BME280;5932;42.656;23.236;2022-07-29T10:20:17;93808.47;;;30.20;49.60
11750;BME280;5932;42.656;23.236;2022-07-29T10:22:44;93800.75;;;30.26;48.07
11750;BME280;5932;42.656;23.236;2022-07-29T10:25:14;93797.19;;;30.26;48.13
11750;BME280;5932;42.656;23.236;2022-07-29T10:27:41;93783.09;;;30.05;48.31
11750;BME280;5932;42.656;23.236;2022-07-29T10:30:09;93804.19;;;30.19;49.10
11750;BME280;5932;42.656;23.236;2022-07-29T10:32:49;93790.63;;;30.23;48.07
11750;BME280;5932;42.656;23.236;2022-07-29T10:35:33;93791.00;;;30.33;48.40
11750;BME280;5932;42.656;23.236;2022-07-29T10:38:21;93783.03;;;30.50;48.10
11750;BME280;5932;42.656;23.236;2022-07-29T10:41:06;93785.06;;;30.62;48.70
11750;BME280;5932;42.656;23.236;2022-07-29T10:43:54;93774.38;;;30.74;48.29
11750;BME280;5932;42.656;23.236;2022-07-29T10:46:22;93778.19;;;30.90;48.21
11750;BME280;5932;42.656;23.236;2022-07-29T10:49:05;93767.28;;;30.99;47.62
11750;BME280;5932;42.656;23.236;2022-07-29T10:51:52;93776.41;;;31.13;47.48
11750;BME280;5932;42.656;23.236;2022-07-29T10:54:39;93768.16;;;31.28;48.12
11750;BME280;5932;42.656;23.236;2022-07-29T10:57:25;93760.84;;;31.38;46.15
11750;BME280;5932;42.656;23.236;2022-07-29T11:00:30;93762.94;;;31.45;45.97
11750;BME280;5932;42.656;23.236;2022-07-29T11:02:58;93757.41;;;31.52;46.17
11750;BME280;5932;42.656;23.236;2022-07-29T11:05:26;93751.38;;;31.62;44.13
11750;BME280;5932;42.656;23.236;2022-07-29T11:08:17;93743.63;;;31.54;44.78
11750;BME280;5932;42.656;23.236;2022-07-29T11:10:45;93747.88;;;31.48;44.62
11750;BME280;5932;42.656;23.236;2022-07-29T11:13:46;93742.94;;;31.41;44.82
11750;BME280;5932;42.656;23.236;2022-07-29T11:16:15;93751.69;;;31.58;45.34
11750;BME280;5932;42.656;23.236;2022-07-29T11:19:20;93744.31;;;31.68;43.99
11750;BME280;5932;42.656;23.236;2022-07-29T11:21:48;93741.16;;;31.72;45.31
11750;BME280;5932;42.656;23.236;2022-07-29T11:24:18;93750.44;;;31.87;43.75
11750;BME280;5932;42.656;23.236;2022-07-29T11:27:06;93746.91;;;32.07;44.42
11750;BME280;5932;42.656;23.236;2022-07-29T11:29:35;93738.38;;;32.20;43.09
11750;BME280;5932;42.656;23.236;2022-07-29T11:32:12;93738.38;;;32.20;42.76
11750;BME280;5932;42.656;23.236;2022-07-29T11:34:40;93741.06;;;32.26;43.41
11750;BME280;5932;42.656;23.236;2022-07-29T11:37:21;93746.00;;;32.40;42.77
11750;BME280;5932;42.656;23.236;2022-07-29T11:40:10;93749.00;;;32.42;41.58
11750;BME280;5932;42.656;23.236;2022-07-29T11:42:45;93742.53;;;32.48;41.76
11750;BME280;5932;42.656;23.236;2022-07-29T11:45:16;93733.06;;;32.66;40.78
11750;BME280;5932;42.656;23.236;2022-07-29T11:47:48;93731.63;;;32.80;40.99
11750;BME280;5932;42.656;23.236;2022-07-29T11:50:17;93730.16;;;32.79;39.88
11750;BME280;5932;42.656;23.236;2022-07-29T11:52:45;93720.59;;;32.82;40.34
11750;BME280;5932;42.656;23.236;2022-07-29T11:55:14;93733.66;;;32.72;39.88
11750;BME280;5932;42.656;23.236;2022-07-29T11:57:48;93724.16;;;32.75;40.00
11750;BME280;5932;42.656;23.236;2022-07-29T12:00:29;93728.72;;;33.00;39.24
11750;BME280;5932;42.656;23.236;2022-07-29T12:02:56;93729.53;;;33.16;37.84
11750;BME280;5932;42.656;23.236;2022-07-29T12:05:32;93732.22;;;33.29;37.47
11750;BME280;5932;42.656;23.236;2022-07-29T12:08:12;93727.28;;;33.14;36.24
11750;BME280;5932;42.656;23.236;2022-07-29T12:10:40;93728.44;;;33.19;37.47
11750;BME280;5932;42.656;23.236;2022-07-29T12:13:08;93725.06;;;33.20;36.08
11750;BME280;5932;42.656;23.236;2022-07-29T12:15:36;93719.47;;;33.28;35.56
11750;BME280;5932;42.656;23.236;2022-07-29T12:18:13;93720.66;;;33.48;35.08
11750;BME280;5932;42.656;23.236;2022-07-29T12:20:40;93731.16;;;33.55;35.49
11750;BME280;5932;42.656;23.236;2022-07-29T12:23:08;93727.78;;;33.49;34.64
11750;BME280;5932;42.656;23.236;2022-07-29T12:25:37;93732.28;;;33.59;34.00
11750;BME280;5932;42.656;23.236;2022-07-29T12:28:06;93724.06;;;33.76;34.56
11750;BME280;5932;42.656;23.236;2022-07-29T12:30:37;93730.94;;;33.45;33.85
11750;BME280;5932;42.656;23.236;2022-07-29T12:33:19;93723.03;;;33.44;34.00
11750;BME280;5932;42.656;23.236;2022-07-29T12:35:48;93720.22;;;33.36;33.57
11750;BME280;5932;42.656;23.236;2022-07-29T12:38:16;93718.03;;;33.57;34.22
11750;BME280;5932;42.656;23.236;2022-07-29T12:40:44;93714.88;;;33.68;33.40
11750;BME280;5932;42.656;23.236;2022-07-29T12:43:13;93713.75;;;33.79;32.87
11750;BME280;5932;42.656;23.236;2022-07-29T12:45:43;93707.75;;;33.90;32.28
11750;BME280;5932;42.656;23.236;2022-07-29T12:48:11;93706.44;;;33.91;31.68
11750;BME280;5932;42.656;23.236;2022-07-29T12:50:56;93691.81;;;34.00;31.54
11750;BME280;5932;42.656;23.236;2022-07-29T12:53:23;93698.00;;;33.91;31.78
11750;BME280;5932;42.656;23.236;2022-07-29T12:55:52;93704.75;;;33.95;32.08
11750;BME280;5932;42.656;23.236;2022-07-29T12:58:27;93692.38;;;34.13;31.67
11750;BME280;5932;42.656;23.236;2022-07-29T13:01:06;93694.25;;;34.19;31.48
11750;BME280;5932;42.656;23.236;2022-07-29T13:03:50;93681.50;;;34.18;31.82
11750;BME280;5932;42.656;23.236;2022-07-29T13:06:35;93686.00;;;34.21;31.36
11750;BME280;5932;42.656;23.236;2022-07-29T13:09:10;93686.91;;;34.31;31.78
11750;BME280;5932;42.656;23.236;2022-07-29T13:11:40;93695.13;;;34.44;31.38
11750;BME280;5932;42.656;23.236;2022-07-29T13:14:08;93688.78;;;34.36;29.96